createdAt,value
2022-12-04T00:01:12.996Z,22.90
2022-12-04T00:03:41.205Z,25.57
2022-12-04T00:06:10.863Z,24.27
2022-12-04T00:08:39.515Z,22.47
2022-12-04T00:11:09.513Z,23.80
2022-12-04T00:13:38.214Z,24.27
2022-12-04T00:16:09.223Z,24.23
2022-12-04T00:18:36.896Z,24.57
2022-12-04T00:21:05.318Z,23.67
2022-12-04T00:23:33.075Z,24.30
2022-12-04T00:26:01.855Z,20.97
2022-12-04T00:28:29.616Z,19.40
2022-12-04T00:30:57.427Z,21.13
2022-12-04T00:33:26.841Z,22.40
2022-12-04T00:35:58.958Z,21.73
2022-12-04T00:38:27.072Z,23.17
2022-12-04T00:40:55.365Z,21.93
2022-12-04T00:43:23.750Z,22.23
2022-12-04T00:45:51.610Z,21.63
2022-12-04T00:48:19.533Z,23.90
2022-12-04T00:50:48.594Z,21.13
2022-12-04T00:53:16.390Z,21.37
2022-12-04T00:55:45.004Z,20.90
2022-12-04T00:58:13.545Z,22.50
2022-12-04T01:00:42.887Z,23.87
2022-12-04T01:03:10.945Z,22.43
2022-12-04T01:05:42.651Z,24.03
2022-12-04T01:08:13.109Z,21.70
2022-12-04T01:10:43.024Z,25.77
2022-12-04T01:13:10.725Z,25.13
2022-12-04T01:15:40.314Z,24.87
2022-12-04T01:18:08.214Z,24.30
2022-12-04T01:20:36.049Z,24.07
2022-12-04T01:23:04.256Z,23.50
2022-12-04T01:25:33.553Z,23.33
2022-12-04T01:28:01.261Z,25.13
2022-12-04T01:30:29.389Z,24.87
2022-12-04T01:32:57.010Z,23.60
2022-12-04T01:35:24.650Z,24.63
2022-12-04T01:37:52.291Z,23.43
2022-12-04T01:40:19.928Z,24.53
2022-12-04T01:42:48.925Z,22.63
2022-12-04T01:45:40.566Z,23.77
2022-12-04T01:48:15.586Z,23.07
2022-12-04T01:50:45.282Z,25.43
2022-12-04T01:53:13.599Z,21.97
2022-12-04T01:55:41.652Z,21.20
2022-12-04T01:58:11.319Z,22.03
2022-12-04T02:00:40.155Z,22.90
2022-12-04T02:03:08.148Z,19.67
2022-12-04T02:05:35.854Z,18.10
2022-12-04T02:08:05.837Z,21.13
2022-12-04T02:10:43.800Z,20.70
2022-12-04T02:13:21.666Z,21.70
2022-12-04T02:15:55.349Z,21.13
2022-12-04T02:18:31.934Z,19.53
2022-12-04T02:21:07.803Z,18.43
2022-12-04T02:23:55.574Z,18.10
2022-12-04T02:26:35.950Z,22.27
2022-12-04T02:29:11.552Z,19.30
2022-12-04T02:31:43.878Z,18.33
2022-12-04T02:34:17.112Z,18.73
2022-12-04T02:36:50.987Z,19.30
2022-12-04T02:39:24.041Z,21.77
2022-12-04T02:41:57.492Z,21.37
2022-12-04T02:44:31.230Z,19.53
2022-12-04T02:47:03.271Z,17.73
2022-12-04T02:49:35.367Z,18.20
2022-12-04T02:52:04.680Z,18.83
2022-12-04T02:54:36.944Z,20.10
2022-12-04T02:57:12.816Z,21.20
2022-12-04T02:59:43.786Z,22.07
2022-12-04T03:02:17.131Z,19.10
2022-12-04T03:04:50.981Z,19.13
2022-12-04T03:07:26.281Z,19.93
2022-12-04T03:09:58.596Z,15.67
2022-12-04T03:12:31.419Z,18.73
2022-12-04T03:15:05.526Z,20.27
2022-12-04T03:17:39.601Z,20.47
2022-12-04T03:20:14.277Z,17.77
2022-12-04T03:22:44.080Z,17.60
2022-12-04T03:25:13.102Z,19.43
2022-12-04T03:27:50.095Z,17.57
2022-12-04T03:30:21.791Z,18.13
2022-12-04T03:32:52.837Z,18.77
2022-12-04T03:35:24.560Z,19.37
2022-12-04T03:37:58.130Z,20.20
2022-12-04T03:40:30.380Z,20.30
2022-12-04T03:43:03.459Z,19.77
2022-12-04T03:45:41.068Z,19.53
2022-12-04T03:48:22.637Z,19.20
2022-12-04T03:50:55.323Z,18.27
2022-12-04T03:53:28.635Z,20.43
2022-12-04T03:56:02.866Z,20.03
2022-12-04T03:58:34.633Z,21.63
2022-12-04T04:01:06.016Z,21.73
2022-12-04T04:03:37.746Z,22.30
2022-12-04T04:06:09.026Z,17.70
2022-12-04T04:08:41.319Z,21.47
2022-12-04T04:11:14.490Z,20.37
2022-12-04T04:14:05.073Z,24.63
2022-12-04T04:16:55.796Z,21.53
2022-12-04T04:19:44.722Z,23.60
2022-12-04T04:22:30.473Z,20.37
2022-12-04T04:25:03.144Z,21.03
2022-12-04T04:27:30.976Z,20.90
2022-12-04T04:29:59.179Z,23.30
2022-12-04T04:32:35.102Z,22.63
2022-12-04T04:35:11.589Z,21.50
2022-12-04T04:37:51.332Z,20.63
2022-12-04T04:40:26.127Z,22.13
2022-12-04T04:43:01.339Z,20.93
2022-12-04T04:45:34.696Z,21.30
2022-12-04T04:48:07.295Z,21.57
2022-12-04T04:50:36.666Z,20.63
2022-12-04T04:53:09.176Z,22.27
2022-12-04T04:55:37.731Z,22.37
2022-12-04T04:58:10.674Z,23.00
2022-12-04T05:00:40.691Z,21.83
2022-12-04T05:03:10.630Z,21.43
2022-12-04T05:05:38.321Z,23.23
2022-12-04T05:08:06.658Z,22.57
2022-12-04T05:10:34.329Z,21.03
2022-12-04T05:13:01.950Z,20.63
2022-12-04T05:15:29.597Z,25.47
2022-12-04T05:17:57.247Z,21.93
2022-12-04T05:20:25.289Z,24.63
2022-12-04T05:22:52.899Z,24.17
2022-12-04T05:25:20.516Z,22.10
2022-12-04T05:27:48.186Z,24.57
2022-12-04T05:30:16.394Z,23.43
2022-12-04T05:32:44.107Z,22.40
2022-12-04T05:35:12.478Z,21.90
2022-12-04T05:37:41.544Z,21.70
2022-12-04T05:40:10.253Z,20.07
2022-12-04T05:42:38.005Z,24.07
2022-12-04T05:45:06.667Z,23.87
2022-12-04T05:47:39.009Z,22.13
2022-12-04T05:50:08.597Z,22.53
2022-12-04T05:52:36.284Z,22.97
2022-12-04T05:55:06.014Z,21.93
2022-12-04T05:57:33.732Z,23.30
2022-12-04T06:00:01.434Z,23.13
2022-12-04T06:02:29.126Z,22.07
2022-12-04T06:04:56.793Z,23.03
2022-12-04T06:07:24.553Z,23.90
2022-12-04T06:09:52.182Z,22.00
2022-12-04T06:12:21.152Z,21.27
2022-12-04T06:14:48.808Z,21.73
2022-12-04T06:17:16.467Z,22.13
2022-12-04T06:19:44.194Z,24.67
2022-12-04T06:22:11.862Z,23.50
2022-12-04T06:24:40.045Z,21.23
2022-12-04T06:29:57.007Z,24.23
2022-12-04T06:32:24.902Z,22.67
2022-12-04T06:34:53.583Z,21.63
2022-12-04T06:37:23.223Z,23.83
2022-12-04T06:39:51.179Z,21.97
2022-12-04T06:42:18.832Z,20.13
2022-12-04T06:44:46.502Z,24.53
2022-12-04T06:47:15.540Z,23.93
2022-12-04T06:49:43.214Z,22.00
2022-12-04T06:52:10.915Z,19.30
2022-12-04T06:54:38.582Z,20.73
2022-12-04T06:57:06.309Z,21.97
2022-12-04T06:59:34.031Z,21.70
2022-12-04T07:02:01.763Z,20.73
2022-12-04T07:04:30.851Z,21.10
2022-12-04T07:06:58.517Z,22.63
2022-12-04T07:09:26.228Z,20.57
2022-12-04T07:11:54.957Z,22.07
2022-12-04T07:14:22.708Z,19.90
2022-12-04T07:16:50.401Z,22.23
2022-12-04T07:19:18.216Z,19.27
2022-12-04T07:21:47.293Z,22.67
2022-12-04T07:24:18.076Z,22.93
2022-12-04T07:26:46.498Z,24.40
2022-12-04T07:29:14.381Z,25.13
2022-12-04T07:31:42.215Z,21.93
2022-12-04T07:34:09.894Z,21.80
2022-12-04T07:36:37.595Z,21.60
2022-12-04T07:39:06.631Z,22.63
2022-12-04T07:41:34.247Z,21.97
2022-12-04T07:44:01.916Z,20.93
2022-12-04T07:46:30.042Z,22.23
2022-12-04T07:48:59.595Z,20.17
2022-12-04T07:51:28.815Z,21.07
2022-12-04T07:54:02.719Z,26.93
2022-12-04T07:56:32.671Z,22.83
2022-12-04T07:59:00.455Z,23.73
2022-12-04T08:01:28.528Z,21.83
2022-12-04T08:03:58.254Z,22.70
2022-12-04T08:06:27.715Z,22.57
2022-12-04T08:08:57.164Z,21.43
2022-12-04T08:11:26.965Z,23.17
2022-12-04T08:13:57.523Z,20.57
2022-12-04T08:16:26.107Z,21.63
2022-12-04T08:18:54.243Z,20.27
2022-12-04T08:21:23.930Z,20.80
2022-12-04T08:23:53.381Z,22.03
2022-12-04T08:26:22.894Z,21.27
2022-12-04T08:28:53.354Z,19.53
2022-12-04T08:31:24.843Z,20.57
2022-12-04T08:33:55.201Z,22.83
2022-12-04T08:36:23.258Z,23.97
2022-12-04T08:38:51.080Z,21.10
2022-12-04T08:41:21.209Z,25.17
2022-12-04T08:43:48.994Z,20.47
2022-12-04T08:46:18.612Z,23.53
2022-12-04T08:48:48.235Z,23.17
2022-12-04T08:51:17.751Z,24.53
2022-12-04T08:53:46.283Z,20.10
2022-12-04T08:56:14.779Z,24.63
2022-12-04T08:58:42.445Z,21.97
2022-12-04T09:01:12.549Z,21.97
2022-12-04T09:03:40.849Z,23.37
2022-12-04T09:06:12.277Z,23.93
2022-12-04T09:08:39.968Z,23.37
2022-12-04T09:11:09.952Z,24.47
2022-12-04T09:13:37.954Z,23.27
2022-12-04T09:16:08.889Z,20.80
2022-12-04T09:18:37.627Z,23.33
2022-12-04T09:21:07.679Z,23.53
2022-12-04T09:23:37.944Z,24.40
2022-12-04T09:26:07.216Z,25.90
2022-12-04T09:28:34.943Z,25.57
2022-12-04T09:31:05.942Z,23.07
2022-12-04T09:33:34.182Z,24.90
2022-12-04T09:36:02.849Z,23.47
2022-12-04T09:38:31.482Z,23.57
2022-12-04T09:41:06.364Z,24.73
2022-12-04T09:43:41.700Z,24.47
2022-12-04T09:46:13.705Z,24.90
2022-12-04T09:48:44.755Z,23.63
2022-12-04T09:51:18.855Z,23.97
2022-12-04T09:53:49.694Z,25.40
2022-12-04T09:56:20.730Z,24.03
2022-12-04T09:58:52.101Z,27.17
2022-12-04T10:01:25.806Z,24.77
2022-12-04T10:03:56.835Z,26.77
2022-12-04T10:06:31.130Z,25.47
2022-12-04T10:09:02.902Z,27.40
2022-12-04T10:11:45.629Z,28.10
2022-12-04T10:14:45.672Z,22.87
2022-12-04T10:17:47.015Z,23.20
2022-12-04T10:20:28.420Z,23.37
2022-12-04T10:23:13.562Z,22.13
2022-12-04T10:25:42.946Z,23.53
2022-12-04T10:28:22.213Z,27.67
2022-12-04T10:30:53.786Z,27.60
2022-12-04T10:33:29.376Z,25.60
2022-12-04T10:35:57.568Z,31.00
2022-12-04T10:38:35.011Z,26.83
2022-12-04T10:41:14.893Z,25.43
2022-12-04T10:43:46.555Z,23.17
2022-12-04T10:46:16.459Z,23.90
2022-12-04T10:48:47.290Z,27.90
2022-12-04T10:51:16.932Z,21.40
2022-12-04T10:53:46.042Z,24.63
2022-12-04T10:56:17.900Z,22.93
2022-12-04T10:58:56.304Z,24.43
2022-12-04T11:01:24.810Z,24.57
2022-12-04T11:04:00.068Z,24.87
2022-12-04T11:06:28.433Z,26.33
2022-12-04T11:08:57.268Z,21.97
2022-12-04T11:11:27.946Z,25.50
2022-12-04T11:14:04.935Z,24.60
2022-12-04T11:16:38.598Z,24.13
2022-12-04T11:19:21.191Z,25.50
2022-12-04T11:21:52.802Z,27.40
2022-12-04T11:24:24.254Z,27.20
2022-12-04T11:26:53.376Z,23.17
2022-12-04T11:29:30.065Z,23.37
2022-12-04T11:32:04.084Z,23.10
2022-12-04T11:34:37.636Z,25.00
2022-12-04T11:37:06.925Z,24.63
2022-12-04T11:39:38.985Z,23.80
2022-12-04T11:42:17.810Z,26.73
2022-12-04T11:44:53.291Z,25.40
2022-12-04T11:47:23.274Z,23.93
2022-12-04T11:50:11.361Z,24.13
2022-12-04T11:53:01.011Z,23.33
2022-12-04T11:55:37.059Z,25.10
2022-12-04T11:58:23.291Z,23.53
2022-12-04T12:01:06.615Z,23.43
2022-12-04T12:03:40.333Z,26.60
2022-12-04T12:06:19.979Z,25.93
2022-12-04T12:09:01.709Z,26.20
2022-12-04T12:11:35.352Z,24.40
2022-12-04T12:14:14.344Z,22.73
2022-12-04T12:16:57.308Z,23.17
2022-12-04T12:19:40.306Z,21.73
2022-12-04T12:22:21.682Z,23.93
2022-12-04T12:24:59.041Z,22.13
2022-12-04T12:27:44.625Z,23.67
2022-12-04T12:30:19.087Z,23.47
2022-12-04T12:33:09.252Z,22.27
2022-12-04T12:35:40.663Z,22.97
2022-12-04T12:38:12.690Z,22.83
2022-12-04T12:40:43.680Z,24.60
2022-12-04T12:43:17.175Z,25.17
2022-12-04T12:45:52.484Z,25.43
2022-12-04T12:48:39.684Z,24.43
2022-12-04T12:51:29.512Z,23.50
2022-12-04T12:54:13.805Z,24.50
2022-12-04T12:56:49.567Z,23.47
2022-12-04T12:59:21.893Z,26.07
2022-12-04T13:02:00.000Z,24.30
2022-12-04T13:04:36.417Z,26.63
2022-12-04T13:07:21.928Z,24.60
2022-12-04T13:09:54.813Z,27.40
2022-12-04T13:12:24.760Z,24.83
2022-12-04T13:14:52.416Z,23.77
2022-12-04T13:17:26.498Z,25.33
2022-12-04T13:19:58.910Z,24.47
2022-12-04T13:22:33.322Z,22.97
2022-12-04T13:25:12.986Z,25.30
2022-12-04T13:27:51.070Z,23.47
2022-12-04T13:30:20.601Z,24.07
2022-12-04T13:33:19.579Z,23.90
2022-12-04T13:36:08.017Z,23.27
2022-12-04T13:38:44.754Z,25.80
2022-12-04T13:41:18.189Z,24.83
2022-12-04T13:43:48.126Z,23.27
2022-12-04T13:46:28.099Z,25.00
2022-12-04T13:48:56.480Z,25.07
2022-12-04T13:51:37.331Z,24.80
2022-12-04T13:54:23.723Z,24.40
2022-12-04T13:56:53.682Z,25.50
2022-12-04T13:59:36.536Z,22.47
2022-12-04T14:02:21.797Z,21.90
2022-12-04T14:04:56.243Z,25.43
2022-12-04T14:07:29.111Z,24.03
2022-12-04T14:10:01.993Z,23.23
2022-12-04T14:12:33.024Z,23.33
2022-12-04T14:15:04.624Z,24.93
2022-12-04T14:17:35.559Z,21.77
2022-12-04T14:20:08.216Z,21.10
2022-12-04T14:22:45.264Z,24.80
2022-12-04T14:25:36.407Z,24.30
2022-12-04T14:28:23.689Z,26.27
2022-12-04T14:31:04.084Z,24.37
2022-12-04T14:33:35.121Z,23.07
2022-12-04T14:36:06.191Z,23.67
2022-12-04T14:38:35.675Z,19.97
2022-12-04T14:41:04.671Z,22.50
2022-12-04T14:43:38.977Z,26.40
2022-12-04T14:46:14.594Z,24.63
2022-12-04T14:48:51.203Z,23.90
2022-12-04T14:51:25.875Z,22.70
2022-12-04T14:54:04.013Z,25.43
2022-12-04T14:56:47.749Z,22.53
2022-12-04T14:59:18.304Z,24.13
2022-12-04T15:01:47.846Z,21.83
2022-12-04T15:04:24.739Z,23.77
2022-12-04T15:06:59.947Z,24.57
2022-12-04T15:09:47.825Z,24.10
2022-12-04T15:12:34.793Z,26.13
2022-12-04T15:15:12.942Z,24.80
2022-12-04T15:17:41.030Z,23.17
2022-12-04T15:20:12.763Z,23.87
2022-12-04T15:22:41.269Z,23.73
2022-12-04T15:25:19.948Z,22.30
2022-12-04T15:27:49.230Z,20.67
2022-12-04T15:30:19.435Z,22.57
2022-12-04T15:32:49.363Z,25.03
2022-12-04T15:35:23.707Z,22.33
2022-12-04T15:37:52.207Z,24.27
2022-12-04T15:40:24.089Z,22.13
2022-12-04T15:42:54.866Z,23.73
2022-12-04T15:45:29.105Z,23.47
2022-12-04T15:47:58.837Z,24.97
2022-12-04T15:50:29.290Z,24.87
2022-12-04T15:53:01.118Z,25.17
2022-12-04T15:55:32.577Z,24.40
2022-12-04T15:58:04.467Z,23.30
2022-12-04T16:00:36.183Z,21.50
2022-12-04T16:03:08.351Z,24.27
2022-12-04T16:05:37.580Z,25.27
2022-12-04T16:08:25.378Z,25.10
2022-12-04T16:11:00.284Z,23.03
2022-12-04T16:13:30.980Z,24.70
2022-12-04T16:16:00.096Z,25.63
2022-12-04T16:18:29.511Z,24.00
2022-12-04T16:20:57.560Z,25.37
2022-12-04T16:23:27.390Z,21.80
2022-12-04T16:25:55.373Z,24.70
2022-12-04T16:28:24.593Z,24.63
2022-12-04T16:30:53.532Z,24.30
2022-12-04T16:33:21.466Z,23.93
2022-12-04T16:35:50.278Z,22.23
2022-12-04T16:38:18.410Z,23.40
2022-12-04T16:40:48.419Z,24.03
2022-12-04T16:43:19.065Z,24.20
2022-12-04T16:45:52.379Z,24.10
2022-12-04T16:48:20.391Z,24.73
2022-12-04T16:50:48.653Z,26.27
2022-12-04T16:53:18.069Z,24.17
2022-12-04T16:55:47.451Z,23.90
2022-12-04T16:58:15.780Z,22.30
2022-12-04T17:00:45.766Z,25.07
2022-12-04T17:03:19.404Z,22.57
2022-12-04T17:05:47.588Z,23.07
2022-12-04T17:08:17.401Z,22.67
2022-12-04T17:10:45.444Z,22.97
2022-12-04T17:13:13.517Z,24.80
2022-12-04T17:15:41.397Z,24.57
2022-12-04T17:18:13.043Z,23.80
2022-12-04T17:20:45.735Z,25.93
2022-12-04T17:23:13.668Z,25.87
2022-12-04T17:25:41.699Z,23.60
2022-12-04T17:28:09.537Z,25.60
2022-12-04T17:30:37.476Z,24.90
2022-12-04T17:33:05.563Z,21.13
2022-12-04T17:35:33.596Z,24.17
2022-12-04T17:38:06.117Z,23.83
2022-12-04T17:40:34.471Z,21.63
2022-12-04T17:43:02.184Z,23.13
2022-12-04T17:45:29.912Z,26.13
2022-12-04T17:47:57.597Z,24.77
2022-12-04T17:50:25.226Z,23.40
2022-12-04T17:52:53.001Z,21.43
2022-12-04T17:55:21.968Z,22.37
2022-12-04T17:57:49.693Z,20.93
2022-12-04T18:00:17.791Z,20.77
2022-12-04T18:02:52.961Z,24.60
2022-12-04T18:05:21.276Z,20.57
2022-12-04T18:07:49.012Z,20.83
2022-12-04T18:10:16.860Z,20.63
2022-12-04T18:12:45.934Z,22.93
2022-12-04T18:15:13.682Z,22.23
2022-12-04T18:17:41.419Z,22.10
2022-12-04T18:20:10.184Z,21.17
2022-12-04T18:22:38.148Z,20.87
2022-12-04T18:25:07.285Z,23.43
2022-12-04T18:27:40.374Z,20.87
2022-12-04T18:30:11.805Z,20.23
2022-12-04T18:32:39.577Z,23.13
2022-12-04T18:35:07.781Z,19.70
2022-12-04T18:37:35.479Z,21.87
2022-12-04T18:40:06.607Z,19.93
2022-12-04T18:42:35.012Z,21.63
2022-12-04T18:45:02.715Z,20.37
2022-12-04T18:47:34.403Z,21.30
2022-12-04T18:50:04.216Z,22.33
2022-12-04T18:52:35.920Z,21.80
2022-12-04T18:55:03.768Z,18.60
2022-12-04T18:57:31.617Z,20.77
2022-12-04T18:59:59.474Z,19.33
2022-12-04T19:02:27.426Z,20.17
2022-12-04T19:04:56.414Z,21.17
2022-12-04T19:07:24.070Z,20.97
2022-12-04T19:12:39.652Z,20.77
2022-12-04T19:15:08.565Z,22.60
2022-12-04T19:17:36.333Z,21.73
2022-12-04T19:20:06.629Z,18.47
2022-12-04T19:22:35.418Z,22.47
2022-12-04T19:25:03.277Z,19.77
2022-12-04T19:27:30.957Z,18.97
2022-12-04T19:29:58.946Z,20.47
2022-12-04T19:32:27.022Z,21.03
2022-12-04T19:34:54.782Z,21.20
2022-12-04T19:37:23.818Z,21.90
2022-12-04T19:39:51.448Z,23.63
2022-12-04T19:42:19.212Z,23.10
2022-12-04T19:44:48.727Z,22.70
2022-12-04T19:47:19.397Z,22.43
2022-12-04T19:49:47.424Z,26.17
2022-12-04T19:52:15.691Z,23.30
2022-12-04T19:54:45.368Z,22.53
2022-12-04T19:57:14.510Z,22.93
2022-12-04T19:59:46.219Z,22.67
2022-12-04T20:02:25.723Z,23.93
2022-12-04T20:04:53.688Z,21.20
2022-12-04T20:07:21.371Z,23.40
2022-12-04T20:09:52.646Z,21.10
2022-12-04T20:12:20.764Z,24.97
2022-12-04T20:14:48.538Z,24.97
2022-12-04T20:17:16.268Z,22.47
2022-12-04T20:19:43.961Z,24.17
2022-12-04T20:22:11.618Z,23.13
2022-12-04T20:24:39.427Z,21.03
2022-12-04T20:27:08.532Z,24.73
2022-12-04T20:29:36.216Z,22.73
2022-12-04T20:32:03.899Z,21.17
2022-12-04T20:34:31.654Z,23.33
2022-12-04T20:36:59.876Z,19.97
2022-12-04T20:39:28.125Z,22.27
2022-12-04T20:41:55.799Z,21.20
2022-12-04T20:44:24.825Z,22.80
2022-12-04T20:46:53.263Z,21.20
2022-12-04T20:49:22.361Z,20.53
2022-12-04T20:51:51.821Z,19.80
2022-12-04T20:54:22.178Z,18.30
2022-12-04T20:56:51.975Z,22.20
2022-12-04T20:59:21.155Z,19.93
2022-12-04T21:01:51.273Z,20.30
2022-12-04T21:04:19.696Z,21.33
2022-12-04T21:06:47.926Z,22.43
2022-12-04T21:09:18.268Z,22.03
2022-12-04T21:11:47.209Z,21.00
2022-12-04T21:14:37.237Z,17.40
2022-12-04T21:17:09.176Z,20.67
2022-12-04T21:19:36.996Z,20.37
2022-12-04T21:22:04.717Z,21.30
2022-12-04T21:24:39.156Z,21.90
2022-12-04T21:27:08.921Z,21.07
2022-12-04T21:29:37.144Z,19.10
2022-12-04T21:32:07.876Z,20.63
2022-12-04T21:34:36.025Z,21.60
2022-12-04T21:37:03.640Z,20.70
2022-12-04T21:39:31.616Z,19.97
2022-12-04T21:42:16.769Z,21.40
2022-12-04T21:44:44.666Z,20.30
2022-12-04T21:47:13.858Z,21.47
2022-12-04T21:49:41.511Z,21.37
2022-12-04T21:52:09.237Z,21.23
2022-12-04T21:54:37.020Z,20.33
2022-12-04T21:57:04.678Z,22.20
2022-12-04T21:59:32.376Z,20.13
2022-12-04T22:02:00.553Z,22.33
2022-12-04T22:04:29.770Z,22.73
2022-12-04T22:06:57.444Z,21.37
2022-12-04T22:09:25.977Z,22.97
2022-12-04T22:11:53.681Z,24.03
2022-12-04T22:14:21.319Z,22.87
2022-12-04T22:16:51.362Z,20.70
2022-12-04T22:19:19.372Z,20.27
2022-12-04T22:21:48.593Z,21.50
2022-12-04T22:24:16.287Z,22.13
2022-12-04T22:26:43.980Z,20.73
2022-12-04T22:29:41.976Z,18.87
2022-12-04T22:31:59.401Z,21.87
2022-12-04T22:34:27.105Z,20.50
2022-12-04T22:36:56.133Z,20.27
2022-12-04T22:39:23.842Z,20.33
2022-12-04T22:41:51.580Z,19.83
2022-12-04T22:44:19.323Z,21.57
2022-12-04T22:46:47.132Z,20.43
2022-12-04T22:49:14.854Z,24.30
2022-12-04T22:51:42.506Z,23.57
2022-12-04T22:54:14.578Z,22.87
2022-12-04T22:56:43.408Z,22.63
2022-12-04T22:59:11.193Z,21.17
2022-12-04T23:01:38.851Z,20.07
2022-12-04T23:04:06.628Z,21.97
2022-12-04T23:06:35.227Z,21.90
2022-12-04T23:09:05.875Z,20.00
2022-12-04T23:11:35.808Z,20.03
2022-12-04T23:14:05.308Z,20.30
2022-12-04T23:16:35.441Z,22.97
2022-12-04T23:19:03.733Z,21.80
2022-12-04T23:21:34.912Z,20.20
2022-12-04T23:24:02.976Z,19.73
2022-12-04T23:26:32.484Z,20.00
2022-12-04T23:29:02.447Z,18.73
2022-12-04T23:31:30.311Z,20.57
2022-12-04T23:33:58.153Z,19.47
2022-12-04T23:36:26.222Z,21.37
2022-12-04T23:38:53.982Z,20.10
2022-12-04T23:41:23.673Z,19.77
2022-12-04T23:43:52.589Z,19.73
2022-12-04T23:46:24.135Z,18.37
2022-12-04T23:48:52.074Z,19.93
2022-12-04T23:51:20.925Z,19.90
2022-12-04T23:53:49.162Z,22.53
2022-12-04T23:56:18.543Z,19.57
2022-12-04T23:58:47.752Z,21.93
